Carlsbad Caverns National Pa, New Mexico
Current Conditions -  °F | °C
As of 4:53 AM on Tuesday 21 Oct 2014 (Local Time) from KCNM Reporting Station
Overcast Overcast  
Wind Chill: 61°   Ceiling: 4800
Heat Index: 61°   Visibility: 7mi
Dew Point: 58°   Wind: 6mph
Humidity: 90%   Direction: 350°N
Pressure: 30.08"   Gusts: NA
Location:  32.3187°N, 104.429°W
Report Text: KCNM 211053Z AUTO 35005KT 7SM FEW030 BKN048 OVC080 16/14 A3008 RMK AO2 SLP150 T01610144
Loading
Personal Weather Stations






























Interactive Weather Map
Tropical Storm Tracking
New forecast layout! Learn more

10-Day Weather Forecast

Advertisements
Track Severe Weather on mobile